Terminal Aerodrome Forecast
Issued by NWS Blacksburg, VA

Current Version | Previous Version | Graphics & Text | Print | Product List | Glossary On
Versions: 1 2 3 4 5 6 7 8 9 10 11 12 13
000
FTUS41 KRNK 212336
TAFBLF
TAF
KBLF 212336Z 2200/2224 29006KT P6SM BKN015
      TEMPO 2209/2213 5SM BR OVC008
     FM221400 31008KT P6SM SKC=

USA.gov is the U.S. government's official web portal to all federal, state and local government web resources and services.